This is the latest recevied weather packets stored in our database for station/object N7TUG-8. If no packets are shown the sender has not sent any weather packets the latest 10 day(s).
| Time | Temp. | Humidity | Pressure | Rain* | Wind** | Luminosity | Snow |
|---|---|---|---|---|---|---|---|
| 1777907236 | 16.11° C | 73% | 1009.8 hPa | 0 mm | 0.45 m/s, 98° | - | - |
| 1777906946 | 16.11° C | 73% | 1009.7 hPa | 0 mm | 0.45 m/s, 105° | - | - |
| 1777906368 | 16.11° C | 73% | 1009.7 hPa | 0 mm | 0.45 m/s, 98° | - | - |
| 1777906158 | 16.11° C | 74% | 1009.7 hPa | 0 mm | 0.45 m/s, 100° | - | - |
| 1777905351 | 15.56° C | 73% | 1009.7 hPa | 0 mm | 0.45 m/s, 92° | - | - |
| 1777904421 | 15.56° C | 71% | 1009.7 hPa | 0 mm | 0.45 m/s, 116° | - | - |
| 1777903972 | 17.22° C | 69% | 1009.6 hPa | 0 mm | 0 m/s | - | - |
| 1777903586 | 17.22° C | 70% | 1009.5 hPa | 0 mm | 0 m/s | - | - |
| 1777903127 | 16.11° C | 73% | 1009.4 hPa | 0 mm | 0 m/s | - | - |
| 1777902695 | 15.56° C | 74% | 1009.5 hPa | 0 mm | 0 m/s | - | - |
| 1777901811 | 13.89° C | 76% | 1009.3 hPa | 0 mm | 0.45 m/s, 244° | - | - |
| 1777900921 | 13.33° C | 77% | 1009.3 hPa | 0 mm | 0.45 m/s, 276° | - | - |
| 1777900111 | 12.78° C | 78% | 1009.1 hPa | 0 mm | 0.89 m/s, 302° | - | - |
| 1777899852 | 12.22° C | 78% | 1009.1 hPa | 0 mm | 0.89 m/s, 331° | - | - |
| 1777899175 | 12.78° C | 76% | 1008.9 hPa | 0 mm | 0 m/s | - | - |
| 1777898346 | 12.78° C | 76% | 1008.9 hPa | 0 mm | 0.45 m/s, 327° | - | - |
| 1777897376 | 12.78° C | 77% | 1009 hPa | 0 mm | 0.45 m/s, 358° | - | - |
| 1777896592 | 13.33° C | 77% | 1008.9 hPa | 0 mm | 0.45 m/s, 241° | - | - |
| 1777896521 | 13.33° C | 77% | 1008.9 hPa | 0 mm | 0.45 m/s, 241° | - | - |
| 1777895712 | 13.33° C | 77% | 1009 hPa | 0 mm | 0.45 m/s, 299° | - | - |
| 1777895575 | 13.33° C | 77% | 1009 hPa | 0 mm | 0.45 m/s, 299° | - | - |
| 1777894795 | 13.33° C | 77% | 1009 hPa | 0 mm | 0.45 m/s, 289° | - | - |
| 1777894093 | 12.78° C | 77% | 1008.9 hPa | 0 mm | 0.89 m/s, 335° | - | - |
| 1777893920 | 12.78° C | 77% | 1008.9 hPa | 0 mm | 0.89 m/s, 335° | - | - |
| 1777893213 | 13.33° C | 76% | 1008.8 hPa | 0 mm | 0.45 m/s, 351° | - | - |
* Rain latest hour (hover to see other rain measurements)
** Current wind speed in m/s (hover to see current wind gust speed)